sensor_id;sensor_type;location;lat;lon;timestamp;P1;durP1;ratioP1;P2;durP2;ratioP2
1567;SDS011;777;47.156;8.326;2022-09-09T00:00:49;2.83;;;1.08;;
1567;SDS011;777;47.156;8.326;2022-09-09T00:03:22;4.40;;;1.10;;
1567;SDS011;777;47.156;8.326;2022-09-09T00:05:55;4.13;;;1.10;;
1567;SDS011;777;47.156;8.326;2022-09-09T00:08:33;3.38;;;1.10;;
1567;SDS011;777;47.156;8.326;2022-09-09T00:11:12;2.60;;;1.20;;
1567;SDS011;777;47.156;8.326;2022-09-09T00:13:44;3.05;;;1.00;;
1567;SDS011;777;47.156;8.326;2022-09-09T00:16:15;2.53;;;1.10;;
1567;SDS011;777;47.156;8.326;2022-09-09T00:18:48;4.72;;;1.38;;
1567;SDS011;777;47.156;8.326;2022-09-09T00:21:23;1.83;;;0.90;;
1567;SDS011;777;47.156;8.326;2022-09-09T00:23:55;2.15;;;0.90;;
1567;SDS011;777;47.156;8.326;2022-09-09T00:26:26;3.88;;;1.30;;
1567;SDS011;777;47.156;8.326;2022-09-09T00:29:04;2.72;;;1.15;;
1567;SDS011;777;47.156;8.326;2022-09-09T00:31:41;3.92;;;1.45;;
1567;SDS011;777;47.156;8.326;2022-09-09T00:34:09;3.45;;;1.10;;
1567;SDS011;777;47.156;8.326;2022-09-09T00:36:39;2.20;;;1.00;;
1567;SDS011;777;47.156;8.326;2022-09-09T00:39:09;3.20;;;1.30;;
1567;SDS011;777;47.156;8.326;2022-09-09T00:41:52;3.20;;;1.15;;
1567;SDS011;777;47.156;8.326;2022-09-09T00:44:30;3.28;;;1.30;;
1567;SDS011;777;47.156;8.326;2022-09-09T00:47:04;3.50;;;1.25;;
1567;SDS011;777;47.156;8.326;2022-09-09T00:49:47;1.58;;;1.10;;
1567;SDS011;777;47.156;8.326;2022-09-09T00:52:26;5.03;;;1.33;;
1567;SDS011;777;47.156;8.326;2022-09-09T00:55:07;5.13;;;1.85;;
1567;SDS011;777;47.156;8.326;2022-09-09T00:57:37;3.25;;;1.00;;
1567;SDS011;777;47.156;8.326;2022-09-09T01:00:17;5.32;;;1.20;;
1567;SDS011;777;47.156;8.326;2022-09-09T01:02:52;3.25;;;1.80;;
1567;SDS011;777;47.156;8.326;2022-09-09T01:05:33;1.85;;;1.40;;
1567;SDS011;777;47.156;8.326;2022-09-09T01:08:09;4.57;;;1.50;;
1567;SDS011;777;47.156;8.326;2022-09-09T01:10:48;4.40;;;1.13;;
1567;SDS011;777;47.156;8.326;2022-09-09T01:13:22;4.20;;;1.30;;
1567;SDS011;777;47.156;8.326;2022-09-09T01:15:52;2.83;;;1.15;;
1567;SDS011;777;47.156;8.326;2022-09-09T01:18:21;5.40;;;1.25;;
1567;SDS011;777;47.156;8.326;2022-09-09T01:20:55;2.55;;;1.15;;
1567;SDS011;777;47.156;8.326;2022-09-09T01:23:37;2.58;;;1.13;;
1567;SDS011;777;47.156;8.326;2022-09-09T01:26:31;3.50;;;1.45;;
1567;SDS011;777;47.156;8.326;2022-09-09T01:31:37;2.03;;;1.20;;
1567;SDS011;777;47.156;8.326;2022-09-09T01:34:09;4.63;;;1.75;;
1567;SDS011;777;47.156;8.326;2022-09-09T01:36:38;2.97;;;1.40;;
1567;SDS011;777;47.156;8.326;2022-09-09T01:39:09;3.92;;;1.50;;
1567;SDS011;777;47.156;8.326;2022-09-09T01:41:38;3.15;;;1.40;;
1567;SDS011;777;47.156;8.326;2022-09-09T01:44:09;2.63;;;1.60;;
1567;SDS011;777;47.156;8.326;2022-09-09T01:46:38;2.80;;;1.40;;
1567;SDS011;777;47.156;8.326;2022-09-09T01:49:12;4.43;;;1.40;;
1567;SDS011;777;47.156;8.326;2022-09-09T01:51:39;3.63;;;1.60;;
1567;SDS011;777;47.156;8.326;2022-09-09T01:54:11;4.13;;;1.45;;
1567;SDS011;777;47.156;8.326;2022-09-09T01:56:43;4.78;;;1.73;;
1567;SDS011;777;47.156;8.326;2022-09-09T01:59:24;2.83;;;1.60;;
1567;SDS011;777;47.156;8.326;2022-09-09T02:02:03;2.65;;;1.40;;
1567;SDS011;777;47.156;8.326;2022-09-09T02:04:40;3.75;;;1.58;;
1567;SDS011;777;47.156;8.326;2022-09-09T02:07:18;3.67;;;1.75;;
1567;SDS011;777;47.156;8.326;2022-09-09T02:09:57;2.55;;;1.50;;
1567;SDS011;777;47.156;8.326;2022-09-09T02:12:38;3.25;;;1.15;;
1567;SDS011;777;47.156;8.326;2022-09-09T02:15:11;4.55;;;1.60;;
1567;SDS011;777;47.156;8.326;2022-09-09T02:17:48;6.20;;;1.50;;
1567;SDS011;777;47.156;8.326;2022-09-09T02:20:18;2.60;;;1.70;;
1567;SDS011;777;47.156;8.326;2022-09-09T02:22:54;2.40;;;1.20;;
1567;SDS011;777;47.156;8.326;2022-09-09T02:25:25;3.92;;;1.67;;
1567;SDS011;777;47.156;8.326;2022-09-09T02:28:00;3.25;;;1.80;;
1567;SDS011;777;47.156;8.326;2022-09-09T02:30:29;3.80;;;1.60;;
1567;SDS011;777;47.156;8.326;2022-09-09T02:33:00;5.50;;;2.20;;
1567;SDS011;777;47.156;8.326;2022-09-09T02:35:40;5.35;;;2.15;;
1567;SDS011;777;47.156;8.326;2022-09-09T02:38:11;4.35;;;2.00;;
1567;SDS011;777;47.156;8.326;2022-09-09T02:40:45;3.58;;;2.10;;
1567;SDS011;777;47.156;8.326;2022-09-09T02:43:15;4.93;;;2.35;;
1567;SDS011;777;47.156;8.326;2022-09-09T02:45:45;4.20;;;1.80;;
1567;SDS011;777;47.156;8.326;2022-09-09T02:48:20;4.00;;;2.05;;
1567;SDS011;777;47.156;8.326;2022-09-09T02:50:54;3.05;;;1.48;;
1567;SDS011;777;47.156;8.326;2022-09-09T02:53:30;4.18;;;1.75;;
1567;SDS011;777;47.156;8.326;2022-09-09T02:56:04;2.90;;;1.38;;
1567;SDS011;777;47.156;8.326;2022-09-09T02:58:40;2.50;;;1.00;;
1567;SDS011;777;47.156;8.326;2022-09-09T03:01:08;2.75;;;1.20;;
1567;SDS011;777;47.156;8.326;2022-09-09T03:03:36;1.60;;;0.98;;
1567;SDS011;777;47.156;8.326;2022-09-09T03:06:08;2.05;;;1.00;;
1567;SDS011;777;47.156;8.326;2022-09-09T03:08:35;2.35;;;1.00;;
1567;SDS011;777;47.156;8.326;2022-09-09T03:11:02;1.13;;;0.57;;
1567;SDS011;777;47.156;8.326;2022-09-09T03:13:32;3.03;;;0.95;;
1567;SDS011;777;47.156;8.326;2022-09-09T03:16:01;4.50;;;0.80;;
1567;SDS011;777;47.156;8.326;2022-09-09T03:18:31;1.73;;;0.60;;
1567;SDS011;777;47.156;8.326;2022-09-09T03:20:59;1.77;;;0.80;;
1567;SDS011;777;47.156;8.326;2022-09-09T03:23:28;2.50;;;0.80;;
1567;SDS011;777;47.156;8.326;2022-09-09T03:25:59;1.67;;;0.80;;
1567;SDS011;777;47.156;8.326;2022-09-09T03:28:35;3.65;;;0.75;;
1567;SDS011;777;47.156;8.326;2022-09-09T03:31:04;1.42;;;0.70;;
1567;SDS011;777;47.156;8.326;2022-09-09T03:33:39;6.10;;;0.90;;
1567;SDS011;777;47.156;8.326;2022-09-09T03:36:07;1.25;;;0.70;;
1567;SDS011;777;47.156;8.326;2022-09-09T03:38:35;2.03;;;0.90;;
1567;SDS011;777;47.156;8.326;2022-09-09T03:41:02;2.00;;;0.82;;
1567;SDS011;777;47.156;8.326;2022-09-09T03:43:33;1.90;;;0.68;;
1567;SDS011;777;47.156;8.326;2022-09-09T03:46:04;3.90;;;0.90;;
1567;SDS011;777;47.156;8.326;2022-09-09T03:48:31;1.63;;;0.68;;
1567;SDS011;777;47.156;8.326;2022-09-09T03:50:59;1.42;;;0.70;;
1567;SDS011;777;47.156;8.326;2022-09-09T03:53:29;2.05;;;1.13;;
1567;SDS011;777;47.156;8.326;2022-09-09T03:55:57;3.58;;;2.08;;
1567;SDS011;777;47.156;8.326;2022-09-09T03:58:25;6.22;;;2.13;;
1567;SDS011;777;47.156;8.326;2022-09-09T04:00:58;3.33;;;1.65;;
1567;SDS011;777;47.156;8.326;2022-09-09T04:03:28;5.07;;;1.38;;
1567;SDS011;777;47.156;8.326;2022-09-09T04:05:56;3.30;;;1.58;;
1567;SDS011;777;47.156;8.326;2022-09-09T04:08:25;5.10;;;1.80;;
1567;SDS011;777;47.156;8.326;2022-09-09T04:10:53;3.17;;;1.80;;
1567;SDS011;777;47.156;8.326;2022-09-09T04:13:23;4.15;;;1.80;;
1567;SDS011;777;47.156;8.326;2022-09-09T04:15:51;3.67;;;1.40;;
1567;SDS011;777;47.156;8.326;2022-09-09T04:18:20;4.65;;;1.75;;
1567;SDS011;777;47.156;8.326;2022-09-09T04:20:50;3.33;;;1.60;;
1567;SDS011;777;47.156;8.326;2022-09-09T04:23:22;3.40;;;1.75;;
1567;SDS011;777;47.156;8.326;2022-09-09T04:25:50;5.65;;;1.50;;
1567;SDS011;777;47.156;8.326;2022-09-09T04:28:19;3.97;;;1.45;;
1567;SDS011;777;47.156;8.326;2022-09-09T04:30:48;3.38;;;1.70;;
1567;SDS011;777;47.156;8.326;2022-09-09T04:33:16;3.03;;;1.42;;
1567;SDS011;777;47.156;8.326;2022-09-09T04:35:44;5.07;;;1.40;;
1567;SDS011;777;47.156;8.326;2022-09-09T04:38:15;3.03;;;1.65;;
1567;SDS011;777;47.156;8.326;2022-09-09T04:40:43;3.80;;;1.30;;
1567;SDS011;777;47.156;8.326;2022-09-09T04:43:13;2.45;;;1.20;;
1567;SDS011;777;47.156;8.326;2022-09-09T04:45:42;3.03;;;1.63;;
1567;SDS011;777;47.156;8.326;2022-09-09T04:48:10;4.72;;;1.45;;
1567;SDS011;777;47.156;8.326;2022-09-09T04:50:37;5.55;;;1.27;;
1567;SDS011;777;47.156;8.326;2022-09-09T04:53:04;2.95;;;1.40;;
1567;SDS011;777;47.156;8.326;2022-09-09T04:55:34;3.03;;;1.20;;
1567;SDS011;777;47.156;8.326;2022-09-09T04:58:03;2.70;;;1.30;;
1567;SDS011;777;47.156;8.326;2022-09-09T05:00:31;5.55;;;1.48;;
1567;SDS011;777;47.156;8.326;2022-09-09T05:03:01;2.05;;;1.30;;
1567;SDS011;777;47.156;8.326;2022-09-09T05:05:29;3.55;;;1.40;;
1567;SDS011;777;47.156;8.326;2022-09-09T05:08:00;1.88;;;1.30;;
1567;SDS011;777;47.156;8.326;2022-09-09T05:10:28;2.05;;;1.20;;
1567;SDS011;777;47.156;8.326;2022-09-09T05:12:58;5.78;;;1.13;;
1567;SDS011;777;47.156;8.326;2022-09-09T05:15:28;3.83;;;1.45;;
1567;SDS011;777;47.156;8.326;2022-09-09T05:17:56;3.90;;;1.50;;
1567;SDS011;777;47.156;8.326;2022-09-09T05:20:24;4.43;;;1.38;;
1567;SDS011;777;47.156;8.326;2022-09-09T05:22:52;2.85;;;1.40;;
1567;SDS011;777;47.156;8.326;2022-09-09T05:25:20;2.25;;;1.20;;
1567;SDS011;777;47.156;8.326;2022-09-09T05:27:47;3.70;;;1.30;;
1567;SDS011;777;47.156;8.326;2022-09-09T05:30:16;4.50;;;1.35;;
1567;SDS011;777;47.156;8.326;2022-09-09T05:32:44;6.03;;;2.53;;
1567;SDS011;777;47.156;8.326;2022-09-09T05:35:13;3.05;;;1.77;;
1567;SDS011;777;47.156;8.326;2022-09-09T05:37:41;3.55;;;1.70;;
1567;SDS011;777;47.156;8.326;2022-09-09T05:40:09;4.70;;;1.85;;
1567;SDS011;777;47.156;8.326;2022-09-09T05:42:37;4.65;;;1.90;;
1567;SDS011;777;47.156;8.326;2022-09-09T05:45:05;3.10;;;1.48;;
1567;SDS011;777;47.156;8.326;2022-09-09T05:47:35;4.78;;;1.73;;
1567;SDS011;777;47.156;8.326;2022-09-09T05:50:05;3.25;;;1.38;;
1567;SDS011;777;47.156;8.326;2022-09-09T05:52:33;4.63;;;1.80;;
1567;SDS011;777;47.156;8.326;2022-09-09T05:55:00;2.25;;;1.52;;
1567;SDS011;777;47.156;8.326;2022-09-09T05:57:29;7.65;;;1.50;;
1567;SDS011;777;47.156;8.326;2022-09-09T05:59:56;4.07;;;1.60;;
1567;SDS011;777;47.156;8.326;2022-09-09T06:02:27;5.05;;;1.60;;
1567;SDS011;777;47.156;8.326;2022-09-09T06:04:55;3.85;;;1.38;;
1567;SDS011;777;47.156;8.326;2022-09-09T06:07:23;2.40;;;1.38;;
1567;SDS011;777;47.156;8.326;2022-09-09T06:09:50;5.45;;;1.70;;
1567;SDS011;777;47.156;8.326;2022-09-09T06:12:18;3.78;;;1.50;;
1567;SDS011;777;47.156;8.326;2022-09-09T06:14:46;4.55;;;1.60;;
1567;SDS011;777;47.156;8.326;2022-09-09T06:17:14;2.50;;;1.38;;
1567;SDS011;777;47.156;8.326;2022-09-09T06:19:41;3.33;;;1.88;;
1567;SDS011;777;47.156;8.326;2022-09-09T06:22:09;4.40;;;1.70;;
1567;SDS011;777;47.156;8.326;2022-09-09T06:24:38;2.72;;;1.50;;
1567;SDS011;777;47.156;8.326;2022-09-09T06:27:05;4.40;;;1.80;;
1567;SDS011;777;47.156;8.326;2022-09-09T06:29:35;3.30;;;1.65;;
1567;SDS011;777;47.156;8.326;2022-09-09T06:32:02;5.18;;;1.75;;
1567;SDS011;777;47.156;8.326;2022-09-09T06:34:30;3.50;;;1.33;;
1567;SDS011;777;47.156;8.326;2022-09-09T06:36:58;3.08;;;0.90;;
1567;SDS011;777;47.156;8.326;2022-09-09T06:39:33;4.80;;;1.00;;
1567;SDS011;777;47.156;8.326;2022-09-09T06:42:00;2.10;;;0.90;;
1567;SDS011;777;47.156;8.326;2022-09-09T06:44:45;3.58;;;1.13;;
1567;SDS011;777;47.156;8.326;2022-09-09T06:47:21;3.13;;;0.80;;
1567;SDS011;777;47.156;8.326;2022-09-09T06:49:50;2.58;;;0.90;;
1567;SDS011;777;47.156;8.326;2022-09-09T06:52:18;3.25;;;0.93;;
1567;SDS011;777;47.156;8.326;2022-09-09T06:54:47;3.00;;;0.80;;
1567;SDS011;777;47.156;8.326;2022-09-09T06:57:16;1.48;;;0.80;;
1567;SDS011;777;47.156;8.326;2022-09-09T06:59:43;3.03;;;1.10;;
1567;SDS011;777;47.156;8.326;2022-09-09T07:02:10;4.45;;;1.33;;
1567;SDS011;777;47.156;8.326;2022-09-09T07:04:37;3.40;;;1.38;;
1567;SDS011;777;47.156;8.326;2022-09-09T07:07:04;2.17;;;1.17;;
1567;SDS011;777;47.156;8.326;2022-09-09T07:09:33;3.17;;;1.48;;
1567;SDS011;777;47.156;8.326;2022-09-09T07:12:03;3.83;;;1.40;;
1567;SDS011;777;47.156;8.326;2022-09-09T07:14:33;3.67;;;1.40;;
1567;SDS011;777;47.156;8.326;2022-09-09T07:17:04;4.38;;;1.58;;
1567;SDS011;777;47.156;8.326;2022-09-09T07:19:36;2.80;;;1.80;;
1567;SDS011;777;47.156;8.326;2022-09-09T07:22:04;2.35;;;1.35;;
1567;SDS011;777;47.156;8.326;2022-09-09T07:24:32;4.00;;;1.30;;
1567;SDS011;777;47.156;8.326;2022-09-09T07:26:59;2.95;;;1.20;;
1567;SDS011;777;47.156;8.326;2022-09-09T07:29:29;3.38;;;1.58;;
1567;SDS011;777;47.156;8.326;2022-09-09T07:31:57;2.90;;;1.30;;
1567;SDS011;777;47.156;8.326;2022-09-09T07:34:29;4.22;;;1.52;;
1567;SDS011;777;47.156;8.326;2022-09-09T07:36:57;3.50;;;1.13;;
1567;SDS011;777;47.156;8.326;2022-09-09T07:39:24;4.72;;;1.33;;
1567;SDS011;777;47.156;8.326;2022-09-09T07:41:53;2.42;;;1.27;;
1567;SDS011;777;47.156;8.326;2022-09-09T07:44:22;2.50;;;1.17;;
1567;SDS011;777;47.156;8.326;2022-09-09T07:47:06;5.68;;;1.23;;
1567;SDS011;777;47.156;8.326;2022-09-09T07:49:38;3.58;;;1.10;;
1567;SDS011;777;47.156;8.326;2022-09-09T07:52:07;3.38;;;1.30;;
1567;SDS011;777;47.156;8.326;2022-09-09T07:54:36;2.38;;;0.90;;
1567;SDS011;777;47.156;8.326;2022-09-09T07:57:05;4.32;;;1.85;;
1567;SDS011;777;47.156;8.326;2022-09-09T07:59:34;4.53;;;1.42;;
1567;SDS011;777;47.156;8.326;2022-09-09T08:02:02;4.28;;;1.30;;
1567;SDS011;777;47.156;8.326;2022-09-09T08:04:33;3.67;;;1.20;;
1567;SDS011;777;47.156;8.326;2022-09-09T08:07:02;6.05;;;1.20;;
1567;SDS011;777;47.156;8.326;2022-09-09T08:09:37;2.05;;;1.15;;
1567;SDS011;777;47.156;8.326;2022-09-09T08:12:24;2.75;;;1.10;;
1567;SDS011;777;47.156;8.326;2022-09-09T08:14:52;5.07;;;1.50;;
1567;SDS011;777;47.156;8.326;2022-09-09T08:17:20;4.30;;;1.20;;
1567;SDS011;777;47.156;8.326;2022-09-09T08:19:49;3.75;;;1.52;;
1567;SDS011;777;47.156;8.326;2022-09-09T08:22:21;3.58;;;1.75;;
1567;SDS011;777;47.156;8.326;2022-09-09T08:24:49;3.38;;;1.30;;
1567;SDS011;777;47.156;8.326;2022-09-09T08:27:17;4.25;;;1.38;;
1567;SDS011;777;47.156;8.326;2022-09-09T08:29:44;4.00;;;1.13;;
1567;SDS011;777;47.156;8.326;2022-09-09T08:32:12;2.60;;;1.00;;
1567;SDS011;777;47.156;8.326;2022-09-09T08:34:39;2.20;;;1.10;;
1567;SDS011;777;47.156;8.326;2022-09-09T08:37:13;6.22;;;1.15;;
1567;SDS011;777;47.156;8.326;2022-09-09T08:39:41;4.63;;;1.20;;
1567;SDS011;777;47.156;8.326;2022-09-09T08:45:03;2.28;;;1.10;;
1567;SDS011;777;47.156;8.326;2022-09-09T08:47:43;3.63;;;1.25;;
1567;SDS011;777;47.156;8.326;2022-09-09T08:50:21;2.13;;;1.17;;
1567;SDS011;777;47.156;8.326;2022-09-09T08:53:00;3.30;;;0.95;;
1567;SDS011;777;47.156;8.326;2022-09-09T08:55:35;5.72;;;1.10;;
1567;SDS011;777;47.156;8.326;2022-09-09T08:58:12;4.65;;;1.05;;
1567;SDS011;777;47.156;8.326;2022-09-09T09:00:45;4.13;;;1.00;;
1567;SDS011;777;47.156;8.326;2022-09-09T09:03:35;3.08;;;1.13;;
1567;SDS011;777;47.156;8.326;2022-09-09T09:06:15;2.10;;;0.80;;
1567;SDS011;777;47.156;8.326;2022-09-09T09:08:56;3.38;;;0.57;;
1567;SDS011;777;47.156;8.326;2022-09-09T09:11:33;2.15;;;0.70;;
1567;SDS011;777;47.156;8.326;2022-09-09T09:14:03;1.38;;;0.60;;
1567;SDS011;777;47.156;8.326;2022-09-09T09:16:38;3.30;;;0.50;;
1567;SDS011;777;47.156;8.326;2022-09-09T09:19:11;2.67;;;0.60;;
1567;SDS011;777;47.156;8.326;2022-09-09T09:21:42;2.83;;;0.50;;
1567;SDS011;777;47.156;8.326;2022-09-09T09:24:16;1.92;;;0.60;;
1567;SDS011;777;47.156;8.326;2022-09-09T09:26:45;3.63;;;0.70;;
1567;SDS011;777;47.156;8.326;2022-09-09T09:29:13;2.42;;;0.80;;
1567;SDS011;777;47.156;8.326;2022-09-09T09:31:44;3.78;;;0.80;;
1567;SDS011;777;47.156;8.326;2022-09-09T09:34:14;1.40;;;0.55;;
1567;SDS011;777;47.156;8.326;2022-09-09T09:36:43;1.38;;;0.60;;
1567;SDS011;777;47.156;8.326;2022-09-09T09:39:23;2.60;;;0.75;;
1567;SDS011;777;47.156;8.326;2022-09-09T09:41:53;1.75;;;0.50;;
1567;SDS011;777;47.156;8.326;2022-09-09T09:44:22;3.47;;;0.60;;
1567;SDS011;777;47.156;8.326;2022-09-09T09:46:52;2.63;;;0.80;;
1567;SDS011;777;47.156;8.326;2022-09-09T09:49:31;2.20;;;0.75;;
1567;SDS011;777;47.156;8.326;2022-09-09T09:51:59;2.55;;;0.80;;
1567;SDS011;777;47.156;8.326;2022-09-09T09:54:30;2.33;;;1.05;;
1567;SDS011;777;47.156;8.326;2022-09-09T09:57:08;5.10;;;1.08;;
1567;SDS011;777;47.156;8.326;2022-09-09T09:59:38;2.60;;;0.80;;
1567;SDS011;777;47.156;8.326;2022-09-09T10:02:24;3.17;;;0.70;;
1567;SDS011;777;47.156;8.326;2022-09-09T10:05:05;1.50;;;0.73;;
1567;SDS011;777;47.156;8.326;2022-09-09T10:07:41;2.58;;;0.90;;
1567;SDS011;777;47.156;8.326;2022-09-09T10:10:12;1.90;;;0.60;;
1567;SDS011;777;47.156;8.326;2022-09-09T10:12:45;2.47;;;0.50;;
1567;SDS011;777;47.156;8.326;2022-09-09T10:15:28;1.80;;;0.50;;
1567;SDS011;777;47.156;8.326;2022-09-09T10:18:08;2.25;;;0.50;;
1567;SDS011;777;47.156;8.326;2022-09-09T10:20:45;1.65;;;0.50;;
1567;SDS011;777;47.156;8.326;2022-09-09T10:23:32;1.67;;;0.40;;
1567;SDS011;777;47.156;8.326;2022-09-09T10:26:18;1.75;;;0.68;;
1567;SDS011;777;47.156;8.326;2022-09-09T10:29:02;1.83;;;0.60;;
1567;SDS011;777;47.156;8.326;2022-09-09T10:31:44;2.83;;;0.50;;
1567;SDS011;777;47.156;8.326;2022-09-09T10:34:24;0.85;;;0.40;;
1567;SDS011;777;47.156;8.326;2022-09-09T10:37:15;1.50;;;0.50;;
1567;SDS011;777;47.156;8.326;2022-09-09T10:39:54;1.42;;;0.40;;
1567;SDS011;777;47.156;8.326;2022-09-09T10:42:30;1.88;;;0.63;;
1567;SDS011;777;47.156;8.326;2022-09-09T10:45:00;1.30;;;0.40;;
1567;SDS011;777;47.156;8.326;2022-09-09T10:47:49;1.55;;;0.40;;
1567;SDS011;777;47.156;8.326;2022-09-09T10:50:29;2.05;;;0.60;;
1567;SDS011;777;47.156;8.326;2022-09-09T10:53:08;3.05;;;0.55;;
1567;SDS011;777;47.156;8.326;2022-09-09T10:55:45;2.20;;;0.65;;
1567;SDS011;777;47.156;8.326;2022-09-09T10:58:20;2.03;;;0.60;;
1567;SDS011;777;47.156;8.326;2022-09-09T11:00:53;1.52;;;0.50;;
1567;SDS011;777;47.156;8.326;2022-09-09T11:03:28;1.50;;;0.40;;
1567;SDS011;777;47.156;8.326;2022-09-09T11:05:57;2.20;;;0.50;;
1567;SDS011;777;47.156;8.326;2022-09-09T11:08:26;1.60;;;0.45;;
1567;SDS011;777;47.156;8.326;2022-09-09T11:10:57;2.65;;;0.60;;
1567;SDS011;777;47.156;8.326;2022-09-09T11:13:32;1.90;;;0.60;;
1567;SDS011;777;47.156;8.326;2022-09-09T11:16:04;2.10;;;0.60;;
1567;SDS011;777;47.156;8.326;2022-09-09T11:18:43;1.15;;;0.40;;
1567;SDS011;777;47.156;8.326;2022-09-09T11:21:17;1.33;;;0.40;;
1567;SDS011;777;47.156;8.326;2022-09-09T11:23:49;0.80;;;0.35;;
1567;SDS011;777;47.156;8.326;2022-09-09T11:26:23;1.60;;;0.60;;
1567;SDS011;777;47.156;8.326;2022-09-09T11:29:02;2.70;;;0.63;;
1567;SDS011;777;47.156;8.326;2022-09-09T11:31:52;2.35;;;0.60;;
1567;SDS011;777;47.156;8.326;2022-09-09T11:34:34;2.30;;;0.60;;
1567;SDS011;777;47.156;8.326;2022-09-09T11:37:15;1.83;;;0.60;;
1567;SDS011;777;47.156;8.326;2022-09-09T11:39:57;1.35;;;0.50;;
1567;SDS011;777;47.156;8.326;2022-09-09T11:42:40;3.88;;;0.85;;
1567;SDS011;777;47.156;8.326;2022-09-09T11:45:10;1.40;;;0.60;;
1567;SDS011;777;47.156;8.326;2022-09-09T11:47:50;2.17;;;0.60;;
1567;SDS011;777;47.156;8.326;2022-09-09T11:50:29;2.15;;;0.52;;
1567;SDS011;777;47.156;8.326;2022-09-09T11:55:48;2.90;;;0.50;;
1567;SDS011;777;47.156;8.326;2022-09-09T11:58:27;3.00;;;0.55;;
1567;SDS011;777;47.156;8.326;2022-09-09T12:01:00;3.17;;;0.55;;
1567;SDS011;777;47.156;8.326;2022-09-09T12:03:38;2.10;;;0.60;;
1567;SDS011;777;47.156;8.326;2022-09-09T12:06:10;1.35;;;0.55;;
1567;SDS011;777;47.156;8.326;2022-09-09T12:08:41;2.72;;;0.60;;
1567;SDS011;777;47.156;8.326;2022-09-09T12:11:11;1.73;;;0.60;;
1567;SDS011;777;47.156;8.326;2022-09-09T12:13:38;2.58;;;0.60;;
1567;SDS011;777;47.156;8.326;2022-09-09T12:16:26;2.78;;;0.70;;
1567;SDS011;777;47.156;8.326;2022-09-09T12:19:02;2.50;;;0.60;;
1567;SDS011;777;47.156;8.326;2022-09-09T12:21:32;1.90;;;0.70;;
1567;SDS011;777;47.156;8.326;2022-09-09T12:26:35;1.92;;;0.55;;
1567;SDS011;777;47.156;8.326;2022-09-09T12:29:11;2.03;;;0.60;;
1567;SDS011;777;47.156;8.326;2022-09-09T12:31:46;2.67;;;0.50;;
1567;SDS011;777;47.156;8.326;2022-09-09T12:34:20;2.83;;;0.55;;
1567;SDS011;777;47.156;8.326;2022-09-09T12:36:57;2.25;;;0.57;;
1567;SDS011;777;47.156;8.326;2022-09-09T12:39:32;1.90;;;0.50;;
1567;SDS011;777;47.156;8.326;2022-09-09T12:42:00;2.55;;;0.60;;
1567;SDS011;777;47.156;8.326;2022-09-09T12:44:29;4.65;;;0.73;;
1567;SDS011;777;47.156;8.326;2022-09-09T12:46:59;2.10;;;0.55;;
1567;SDS011;777;47.156;8.326;2022-09-09T12:49:29;1.27;;;0.50;;
1567;SDS011;777;47.156;8.326;2022-09-09T12:56:24;2.78;;;0.60;;
1567;SDS011;777;47.156;8.326;2022-09-09T12:58:55;2.50;;;0.68;;
1567;SDS011;777;47.156;8.326;2022-09-09T13:01:24;1.60;;;0.57;;
1567;SDS011;777;47.156;8.326;2022-09-09T13:03:55;1.55;;;0.40;;
1567;SDS011;777;47.156;8.326;2022-09-09T13:06:23;2.75;;;0.57;;
1567;SDS011;777;47.156;8.326;2022-09-09T13:08:51;2.08;;;0.50;;
1567;SDS011;777;47.156;8.326;2022-09-09T13:11:20;2.90;;;0.90;;
1567;SDS011;777;47.156;8.326;2022-09-09T13:13:50;2.30;;;0.63;;
1567;SDS011;777;47.156;8.326;2022-09-09T13:16:20;0.95;;;0.50;;
1567;SDS011;777;47.156;8.326;2022-09-09T13:18:49;2.80;;;0.60;;
1567;SDS011;777;47.156;8.326;2022-09-09T13:21:18;2.60;;;0.65;;
1567;SDS011;777;47.156;8.326;2022-09-09T13:23:48;2.05;;;0.60;;
1567;SDS011;777;47.156;8.326;2022-09-09T13:26:22;2.30;;;0.60;;
1567;SDS011;777;47.156;8.326;2022-09-09T13:28:51;1.98;;;0.50;;
1567;SDS011;777;47.156;8.326;2022-09-09T13:31:20;3.65;;;0.57;;
1567;SDS011;777;47.156;8.326;2022-09-09T13:33:49;2.90;;;0.85;;
1567;SDS011;777;47.156;8.326;2022-09-09T13:36:26;2.17;;;0.70;;
1567;SDS011;777;47.156;8.326;2022-09-09T13:38:56;1.08;;;0.50;;
1567;SDS011;777;47.156;8.326;2022-09-09T13:41:34;3.88;;;0.70;;
1567;SDS011;777;47.156;8.326;2022-09-09T13:44:02;1.63;;;0.50;;
1567;SDS011;777;47.156;8.326;2022-09-09T13:46:32;1.40;;;0.93;;
1567;SDS011;777;47.156;8.326;2022-09-09T13:49:02;1.30;;;0.50;;
1567;SDS011;777;47.156;8.326;2022-09-09T13:51:47;0.93;;;0.32;;
1567;SDS011;777;47.156;8.326;2022-09-09T13:54:16;2.25;;;0.60;;
1567;SDS011;777;47.156;8.326;2022-09-09T13:56:44;2.75;;;0.70;;
1567;SDS011;777;47.156;8.326;2022-09-09T13:59:13;2.45;;;0.60;;
1567;SDS011;777;47.156;8.326;2022-09-09T14:01:41;1.05;;;0.40;;
1567;SDS011;777;47.156;8.326;2022-09-09T14:04:09;2.55;;;0.60;;
1567;SDS011;777;47.156;8.326;2022-09-09T14:06:36;2.33;;;0.55;;
1567;SDS011;777;47.156;8.326;2022-09-09T14:09:06;1.85;;;0.88;;
1567;SDS011;777;47.156;8.326;2022-09-09T14:11:34;0.98;;;0.55;;
1567;SDS011;777;47.156;8.326;2022-09-09T14:14:01;2.22;;;0.60;;
1567;SDS011;777;47.156;8.326;2022-09-09T14:16:28;1.77;;;0.55;;
1567;SDS011;777;47.156;8.326;2022-09-09T14:18:55;1.08;;;0.63;;
1567;SDS011;777;47.156;8.326;2022-09-09T14:21:24;2.67;;;0.68;;
1567;SDS011;777;47.156;8.326;2022-09-09T14:23:52;2.33;;;0.50;;
1567;SDS011;777;47.156;8.326;2022-09-09T14:26:21;2.45;;;0.60;;
1567;SDS011;777;47.156;8.326;2022-09-09T14:28:48;3.33;;;0.60;;
1567;SDS011;777;47.156;8.326;2022-09-09T14:31:17;1.30;;;0.43;;
1567;SDS011;777;47.156;8.326;2022-09-09T14:33:44;1.80;;;0.47;;
1567;SDS011;777;47.156;8.326;2022-09-09T14:36:11;2.30;;;0.50;;
1567;SDS011;777;47.156;8.326;2022-09-09T14:38:39;1.58;;;0.50;;
1567;SDS011;777;47.156;8.326;2022-09-09T14:41:07;1.27;;;0.50;;
1567;SDS011;777;47.156;8.326;2022-09-09T14:43:38;2.15;;;0.50;;
1567;SDS011;777;47.156;8.326;2022-09-09T14:46:05;2.08;;;0.50;;
1567;SDS011;777;47.156;8.326;2022-09-09T14:48:33;0.82;;;0.40;;
1567;SDS011;777;47.156;8.326;2022-09-09T14:51:04;1.58;;;0.47;;
1567;SDS011;777;47.156;8.326;2022-09-09T14:53:33;1.30;;;0.50;;
1567;SDS011;777;47.156;8.326;2022-09-09T14:56:04;1.58;;;0.50;;
1567;SDS011;777;47.156;8.326;2022-09-09T14:58:33;2.22;;;0.30;;
1567;SDS011;777;47.156;8.326;2022-09-09T15:01:06;2.30;;;0.70;;
1567;SDS011;777;47.156;8.326;2022-09-09T15:03:35;3.05;;;0.50;;
1567;SDS011;777;47.156;8.326;2022-09-09T15:06:06;1.85;;;0.50;;
1567;SDS011;777;47.156;8.326;2022-09-09T15:08:34;2.67;;;0.50;;
1567;SDS011;777;47.156;8.326;2022-09-09T15:11:02;3.60;;;0.60;;
1567;SDS011;777;47.156;8.326;2022-09-09T15:13:30;1.70;;;0.60;;
1567;SDS011;777;47.156;8.326;2022-09-09T15:16:02;3.33;;;0.40;;
1567;SDS011;777;47.156;8.326;2022-09-09T15:20:59;1.67;;;0.50;;
1567;SDS011;777;47.156;8.326;2022-09-09T15:23:30;2.13;;;0.50;;
1567;SDS011;777;47.156;8.326;2022-09-09T15:25:57;3.33;;;0.60;;
1567;SDS011;777;47.156;8.326;2022-09-09T15:28:24;1.75;;;0.57;;
1567;SDS011;777;47.156;8.326;2022-09-09T15:30:52;2.17;;;0.70;;
1567;SDS011;777;47.156;8.326;2022-09-09T15:33:20;1.60;;;0.50;;
1567;SDS011;777;47.156;8.326;2022-09-09T15:35:49;2.28;;;0.30;;
1567;SDS011;777;47.156;8.326;2022-09-09T15:38:17;1.23;;;0.43;;
1567;SDS011;777;47.156;8.326;2022-09-09T15:40:44;3.45;;;0.40;;
1567;SDS011;777;47.156;8.326;2022-09-09T15:43:19;4.22;;;0.57;;
1567;SDS011;777;47.156;8.326;2022-09-09T15:45:49;5.53;;;0.93;;
1567;SDS011;777;47.156;8.326;2022-09-09T15:48:21;1.52;;;0.50;;
1567;SDS011;777;47.156;8.326;2022-09-09T15:51:02;2.25;;;0.60;;
1567;SDS011;777;47.156;8.326;2022-09-09T15:53:30;1.00;;;0.35;;
1567;SDS011;777;47.156;8.326;2022-09-09T15:55:58;1.48;;;0.50;;
1567;SDS011;777;47.156;8.326;2022-09-09T15:58:29;1.92;;;0.60;;
1567;SDS011;777;47.156;8.326;2022-09-09T16:01:01;1.98;;;0.55;;
1567;SDS011;777;47.156;8.326;2022-09-09T16:03:29;2.53;;;0.50;;
1567;SDS011;777;47.156;8.326;2022-09-09T16:05:56;1.38;;;0.40;;
1567;SDS011;777;47.156;8.326;2022-09-09T16:08:25;1.48;;;0.40;;
1567;SDS011;777;47.156;8.326;2022-09-09T16:11:03;1.73;;;0.47;;
1567;SDS011;777;47.156;8.326;2022-09-09T16:13:33;2.65;;;0.73;;
1567;SDS011;777;47.156;8.326;2022-09-09T16:16:00;2.50;;;0.47;;